Airfield :
LOGIN :

Register | Disclaimer

   EN    FR    IT 

 










Legend :    VFR   Marginal VFR   IFR   Intensive IFR   Very Intensive IFR
Visi :
Ceiling :
>= 8 km
>= 3000ft
5 to 8 km
1000 to 3000 ft
1500m to 5 km
500 to 1000 ft
800 to 1500m
200 to 500 ft
< 800m
< 200 ft
Symbols :   Thunderstorms  Fog  Heavy snow  Heavy precipitations  Wind > 20 kt
SIGMETs :     Misc.  Thunderstorms  Icing  Turbulence  Mountain Waves  Volcanic Ashes







- Airport Elevation : 598 ft
- IATA code : BQH
- Download approach charts


EGKB - Biggin Hill

CURRENT METAR :
  • 171120Z 19013KT CAVOK 03/03 Q1023

EXPIRED METARs :
  • 171050Z 19012KT CAVOK 03/03 Q1024
  • 171020Z 19008KT CAVOK 04/04 Q1024
  • 170950Z 21008KT CAVOK 03/03 Q1024
  • 170920Z 22006KT CAVOK 03/03 Q1024
  • 170850Z 20007KT 3000 BCFG FEW003 01/01 Q1024

TAF AMD TAF EGKB
Valid from the 17 at 09:00 until the 17 at 18:00 UTC


170933Z 1709/1718 20005KT CAVOK
BECMG 1709/1712 FEW010 BKN030
PROB40
TEMPO 1709/1712 3000 BR BKN004
BECMG 1712/1715 6000
TEMPO 1712/1715 RA BKN007
BECMG 1715/1718 21015KT -RADZ BKN003
TEMPO 1715/1718 2000 RADZ BKN001
PROB30
TEMPO 1715/1718 0300 FG
No reported NOTAMs for that airfield.



MET'MAP, your aeronautical weather chart ! - Copyright ORBIFLY December 2007 - Disclaimer

ORBIFLY MET'MAP TEAM :

Programming & Development : Alexandra Zaïnal
Concept & Development : Baudouin d'Aumeries
Co-Development & Prog : Marc-Olivier Méhu
Technical & hardware support : Manuel Goepfert

Contact : metmap@orbifly.com




SOURCES & CREDITS :

   NOAA